Time;durP1;ratioP1;P1;durP2;ratioP2;P2;SDS_P1;SDS_P2;PMS_P1;PMS_P2;Temp;Humidity;BMP_temperature;BMP_pressure;BME280_temperature;BME280_humidity;BME280_pressure;Samples;Min_cycle;Max_cycle;Signal;HPM_P1;HPM_P2
2023/07/30 00:01:53;;;;;;;10.63;4.07;;;;;;;16.31;80.04;100816.69;5094040;28;20020;-72
2023/07/30 00:04:19;;;;;;;7.15;3.95;;;;;;;16.32;81.08;100821.06;5094040;28;20130;-72
2023/07/30 00:06:44;;;;;;;9.05;3.75;;;;;;;16.28;80.24;100816.97;5094293;28;20066;-72
2023/07/30 00:09:12;;;;;;;9.05;4.30;;;;;;;16.24;80.84;100828.97;5111522;28;20478;-72
2023/07/30 00:11:38;;;;;;;10.68;4.00;;;;;;;16.25;80.90;100822.59;5094181;28;20059;-72
2023/07/30 00:14:04;;;;;;;9.63;4.00;;;;;;;16.15;81.49;100825.25;5094400;28;20070;-72
2023/07/30 00:16:32;;;;;;;8.90;4.13;;;;;;;16.17;81.18;100817.91;5112560;28;20027;-72
2023/07/30 00:18:57;;;;;;;11.63;4.13;;;;;;;16.17;81.79;100807.16;5112329;28;20050;-72
2023/07/30 00:21:23;;;;;;;9.35;3.95;;;;;;;16.21;81.02;100808.59;5094132;28;20066;-72
2023/07/30 00:23:48;;;;;;;6.80;4.60;;;;;;;16.07;81.06;100817.84;5093401;28;20031;-72
2023/07/30 00:26:16;;;;;;;9.90;4.63;;;;;;;16.06;80.92;100810.78;5112695;28;20070;-72
2023/07/30 00:28:42;;;;;;;10.40;4.25;;;;;;;16.05;82.18;100825.19;5112132;28;20023;-72
2023/07/30 00:31:07;;;;;;;9.25;4.18;;;;;;;16.03;82.29;100813.75;5093924;28;20559;-72
2023/07/30 00:33:32;;;;;;;10.95;4.07;;;;;;;16.00;82.32;100821.19;5111312;28;20475;-72
2023/07/30 00:35:58;;;;;;;9.02;4.38;;;;;;;15.96;81.93;100814.41;5111414;28;20053;-72
2023/07/30 00:38:23;;;;;;;9.85;4.07;;;;;;;15.94;82.21;100825.25;5110082;28;20054;-72
2023/07/30 00:40:49;;;;;;;11.30;4.30;;;;;;;16.01;81.74;100831.81;5094060;28;20016;-72
2023/07/30 00:43:14;;;;;;;7.00;4.45;;;;;;;15.88;82.77;100823.09;5093951;28;20031;-72
2023/07/30 00:45:42;;;;;;;9.02;4.45;;;;;;;15.81;82.13;100824.63;5093971;28;20478;-72
2023/07/30 00:48:08;;;;;;;9.68;4.32;;;;;;;15.73;82.65;100821.72;5111699;28;20034;-72
2023/07/30 00:50:36;;;;;;;11.73;5.40;;;;;;;15.77;82.78;100828.56;5112110;28;20024;-72
2023/07/30 00:53:01;;;;;;;10.90;4.75;;;;;;;15.79;82.93;100832.78;5110703;28;20038;-72
2023/07/30 00:55:27;;;;;;;11.13;4.70;;;;;;;15.84;83.09;100833.25;5110364;28;20114;-72
2023/07/30 00:57:52;;;;;;;13.35;5.25;;;;;;;15.77;83.54;100842.81;5114840;28;20031;-72
2023/07/30 01:00:18;;;;;;;10.57;5.13;;;;;;;15.79;83.81;100839.97;5116051;28;20031;-72
2023/07/30 01:02:44;;;;;;;9.45;4.53;;;;;;;15.82;83.31;100839.72;5097622;28;20027;-72
2023/07/30 01:05:09;;;;;;;12.30;5.78;;;;;;;15.72;83.68;100836.97;5097627;28;20035;-72
2023/07/30 01:07:35;;;;;;;8.43;4.75;;;;;;;15.80;84.00;100844.38;5115503;28;20023;-72
2023/07/30 01:10:01;;;;;;;14.55;4.78;;;;;;;15.79;84.09;100842.66;5096362;28;20028;-72
2023/07/30 01:12:30;;;;;;;10.90;4.97;;;;;;;15.72;83.08;100855.75;5115802;28;20099;-72
2023/07/30 01:14:58;;;;;;;7.20;4.53;;;;;;;15.72;84.05;100850.38;5097757;28;20027;-72
2023/07/30 01:17:26;;;;;;;12.20;4.57;;;;;;;15.72;83.61;100858.44;5096983;28;20027;-72
2023/07/30 01:19:55;;;;;;;13.15;5.00;;;;;;;15.64;84.80;100861.72;5097252;28;20068;-72
2023/07/30 01:22:24;;;;;;;9.30;4.45;;;;;;;15.74;84.76;100866.34;5112588;28;20055;-72
2023/07/30 01:24:50;;;;;;;9.63;4.82;;;;;;;15.73;84.97;100870.00;5113900;28;20106;-72
2023/07/30 01:27:27;;;;;;;11.00;4.60;;;;;;;15.77;85.00;100864.25;5114630;28;20103;-72
2023/07/30 01:30:12;;;;;;;13.38;4.78;;;;;;;15.71;85.56;100863.94;5096290;28;20039;-72
2023/07/30 01:32:38;;;;;;;9.65;4.50;;;;;;;15.69;85.97;100864.06;5096336;28;20141;-72
2023/07/30 01:35:07;;;;;;;15.07;5.30;;;;;;;15.60;85.55;100856.75;5095586;28;20031;-72
2023/07/30 01:37:33;;;;;;;11.90;5.00;;;;;;;15.64;85.47;100867.06;5112927;28;20421;-72
2023/07/30 01:40:00;;;;;;;10.70;5.38;;;;;;;15.58;86.49;100867.59;5095904;28;20474;-72
2023/07/30 01:42:30;;;;;;;12.98;4.90;;;;;;;15.56;86.34;100866.00;5114646;28;20463;-72
2023/07/30 01:44:57;;;;;;;13.18;4.90;;;;;;;15.58;86.01;100869.44;5096627;28;20035;-72
2023/07/30 01:47:23;;;;;;;10.52;4.65;;;;;;;15.55;86.17;100867.00;5095989;28;20027;-72
2023/07/30 01:49:48;;;;;;;9.95;5.18;;;;;;;15.55;86.38;100869.69;5113935;28;20034;-72
2023/07/30 01:52:14;;;;;;;13.95;5.75;;;;;;;15.42;86.71;100865.34;5114114;28;20023;-72
2023/07/30 01:54:39;;;;;;;11.82;4.80;;;;;;;15.52;87.46;100870.78;5113677;28;20047;-72
2023/07/30 01:57:05;;;;;;;12.55;4.80;;;;;;;15.41;86.90;100878.88;5114698;28;20410;-72
2023/07/30 01:59:33;;;;;;;9.73;5.07;;;;;;;15.38;87.65;100871.97;5113892;28;20027;-72
2023/07/30 02:01:58;;;;;;;13.90;4.70;;;;;;;15.40;87.44;100879.84;5112980;28;20027;-72
2023/07/30 02:04:23;;;;;;;13.65;4.90;;;;;;;15.41;87.30;100886.91;5096074;28;20470;-72
2023/07/30 02:06:49;;;;;;;10.75;5.15;;;;;;;15.33;87.97;100878.69;5113183;28;20103;-72
2023/07/30 02:09:14;;;;;;;11.88;5.00;;;;;;;15.34;87.73;100877.69;5112624;28;20050;-72
2023/07/30 02:11:39;;;;;;;13.93;5.53;;;;;;;15.34;88.21;100881.22;5095098;28;20516;-72
2023/07/30 02:14:07;;;;;;;10.43;4.78;;;;;;;15.26;88.59;100872.94;5095224;28;20038;-72
2023/07/30 02:16:32;;;;;;;14.15;4.97;;;;;;;15.31;88.33;100880.63;5113288;28;20031;-72
2023/07/30 02:18:58;;;;;;;10.32;5.20;;;;;;;15.26;89.22;100866.75;5114677;28;20057;-72
2023/07/30 02:21:23;;;;;;;15.98;6.80;;;;;;;15.19;89.24;100855.69;5113591;28;20069;-72
2023/07/30 02:23:49;;;;;;;13.00;4.90;;;;;;;15.29;89.45;100853.09;5092452;28;20031;-72
2023/07/30 02:26:14;;;;;;;14.35;4.90;;;;;;;15.25;89.90;100857.00;5113733;28;20038;-72
2023/07/30 02:28:42;;;;;;;14.20;5.68;;;;;;;15.34;89.38;100866.97;5113481;28;20030;-72
2023/07/30 02:31:07;;;;;;;14.75;5.75;;;;;;;15.32;89.92;100858.19;5112706;28;20494;-72
2023/07/30 02:33:35;;;;;;;13.80;5.57;;;;;;;15.32;89.61;100871.59;5094751;28;20123;-72
2023/07/30 02:36:00;;;;;;;13.43;5.82;;;;;;;15.38;89.71;100857.69;5094812;28;20049;-72
2023/07/30 02:38:26;;;;;;;11.52;5.35;;;;;;;15.42;89.52;100857.31;5113808;28;20031;-72
2023/07/30 02:40:51;;;;;;;16.05;6.25;;;;;;;15.53;89.94;100868.94;5094826;28;20475;-72
2023/07/30 02:43:16;;;;;;;16.45;5.45;;;;;;;15.54;89.71;100865.31;5113977;28;20031;-72
2023/07/30 02:45:42;;;;;;;12.50;5.45;;;;;;;15.48;89.66;100860.47;5095662;28;20064;-72
2023/07/30 02:48:07;;;;;;;14.35;5.47;;;;;;;15.43;89.12;100856.31;5114058;28;20398;-72
2023/07/30 02:50:32;;;;;;;14.77;6.35;;;;;;;15.43;89.69;100861.69;5095639;28;20015;-72
2023/07/30 02:52:58;;;;;;;16.58;6.82;;;;;;;15.40;90.36;100867.31;5113877;28;20023;-72
2023/07/30 02:55:23;;;;;;;13.00;5.63;;;;;;;15.47;90.16;100864.09;5113120;28;20592;-72
2023/07/30 02:57:49;;;;;;;14.98;5.75;;;;;;;15.40;91.04;100863.78;5095729;28;20032;-72
2023/07/30 03:00:17;;;;;;;13.25;5.47;;;;;;;15.40;90.55;100867.31;5113995;28;20042;-72
2023/07/30 03:02:42;;;;;;;14.02;5.72;;;;;;;15.41;91.07;100865.47;5095629;28;20027;-72
2023/07/30 03:05:08;;;;;;;12.27;5.90;;;;;;;15.41;91.02;100876.19;5110683;28;20375;-72
2023/07/30 03:07:36;;;;;;;16.52;5.72;;;;;;;15.44;91.30;100871.44;5113180;28;20024;-73
2023/07/30 03:10:01;;;;;;;12.07;6.05;;;;;;;15.40;90.71;100864.63;5112308;28;20035;-72
2023/07/30 03:12:26;;;;;;;14.27;5.70;;;;;;;15.39;91.62;100862.94;5092701;28;20478;-72
2023/07/30 03:14:52;;;;;;;18.02;6.13;;;;;;;15.40;91.89;100869.13;5112277;28;20030;-72
2023/07/30 03:17:17;;;;;;;14.35;6.28;;;;;;;15.31;92.13;100862.72;5093320;28;20030;-72
2023/07/30 03:19:43;;;;;;;16.95;6.65;;;;;;;15.45;92.09;100866.94;5083632;28;20040;-72
2023/07/30 03:22:11;;;;;;;20.83;6.82;;;;;;;15.42;91.77;100867.19;5111578;28;20073;-72
2023/07/30 03:24:36;;;;;;;17.98;6.70;;;;;;;15.40;91.87;100869.13;5110640;28;20096;-72
2023/07/30 03:27:02;;;;;;;17.23;6.28;;;;;;;15.30;92.52;100868.22;5112314;28;20466;-72
2023/07/30 03:29:30;;;;;;;18.67;6.28;;;;;;;15.32;92.87;100863.56;5112126;28;20031;-73
2023/07/30 03:31:55;;;;;;;16.08;5.90;;;;;;;15.41;92.29;100860.97;5111948;28;20399;-72
2023/07/30 03:34:23;;;;;;;13.10;5.43;;;;;;;15.32;92.69;100864.41;5092704;28;20073;-72
2023/07/30 03:36:49;;;;;;;16.33;5.85;;;;;;;15.29;92.24;100859.28;5092513;28;20027;-72
2023/07/30 03:39:14;;;;;;;14.82;5.72;;;;;;;15.36;92.64;100875.75;5091723;28;20034;-72
2023/07/30 03:41:39;;;;;;;18.52;5.43;;;;;;;15.34;92.78;100875.84;5111047;28;20024;-72
2023/07/30 03:44:05;;;;;;;16.60;5.47;;;;;;;15.34;92.87;100870.50;5110737;28;20023;-72
2023/07/30 03:46:30;;;;;;;18.00;5.32;;;;;;;15.40;92.91;100877.19;5093625;28;20020;-72
2023/07/30 03:48:55;;;;;;;17.23;6.05;;;;;;;15.35;93.06;100884.75;5094309;28;20430;-72
2023/07/30 03:51:24;;;;;;;21.10;6.72;;;;;;;15.32;93.14;100883.16;5113023;28;20027;-73
2023/07/30 03:53:49;;;;;;;16.97;6.43;;;;;;;15.33;93.39;100884.88;5112125;28;20027;-72
2023/07/30 03:56:15;;;;;;;17.00;5.68;;;;;;;15.30;93.49;100885.13;5094521;28;20027;-72
2023/07/30 03:58:40;;;;;;;17.35;5.65;;;;;;;15.31;94.05;100891.34;5093081;28;20098;-72
2023/07/30 04:01:08;;;;;;;22.60;6.70;;;;;;;15.33;93.65;100887.56;5094215;28;20028;-72
2023/07/30 04:03:34;;;;;;;18.52;6.65;;;;;;;15.35;93.44;100896.34;5074432;28;20543;-72
2023/07/30 04:05:59;;;;;;;14.35;6.28;;;;;;;15.39;93.25;100895.09;5109984;28;20096;-72
2023/07/30 04:08:25;;;;;;;21.30;6.50;;;;;;;15.32;93.88;100893.03;5092433;28;20378;-72
2023/07/30 04:10:52;;;;;;;16.58;5.93;;;;;;;15.24;94.62;100885.66;5094172;28;20110;-72
2023/07/30 04:13:18;;;;;;;15.95;6.38;;;;;;;15.36;93.81;100894.50;5110255;28;20023;-72
2023/07/30 04:15:43;;;;;;;12.60;6.30;;;;;;;15.25;93.81;100881.97;5092166;28;20088;-73
2023/07/30 04:18:08;;;;;;;16.83;5.85;;;;;;;15.42;93.52;100896.66;5093766;28;20031;-72
2023/07/30 04:20:34;;;;;;;19.40;7.00;;;;;;;15.36;93.60;100889.13;5111739;28;20053;-71
2023/07/30 04:22:59;;;;;;;18.92;7.25;;;;;;;15.34;94.08;100891.09;5111313;28;20063;-72
2023/07/30 04:25:24;;;;;;;17.92;6.47;;;;;;;15.44;94.80;100892.88;5110790;28;20069;-72
2023/07/30 04:27:50;;;;;;;19.17;6.60;;;;;;;15.44;94.37;100892.88;5091525;28;20024;-71
2023/07/30 04:30:15;;;;;;;20.83;7.45;;;;;;;15.47;94.13;100897.16;5091098;28;20035;-72
2023/07/30 04:32:43;;;;;;;21.52;7.60;;;;;;;15.43;94.42;100890.31;5109532;28;20601;-72
2023/07/30 04:35:11;;;;;;;21.88;7.50;;;;;;;15.47;94.44;100893.59;5110769;28;20020;-72
2023/07/30 04:37:37;;;;;;;20.37;7.20;;;;;;;15.49;94.36;100891.66;5111771;28;20438;-72
2023/07/30 04:40:03;;;;;;;23.42;8.07;;;;;;;15.52;94.16;100897.59;5111409;28;20024;-72
2023/07/30 04:42:28;;;;;;;23.65;8.00;;;;;;;15.43;94.95;100883.13;5112101;28;20085;-72
2023/07/30 04:44:54;;;;;;;19.60;8.38;;;;;;;15.43;94.77;100883.13;5093011;28;20020;-72
2023/07/30 04:47:19;;;;;;;20.20;8.50;;;;;;;15.53;94.41;100891.28;5091399;28;20378;-72
2023/07/30 04:49:44;;;;;;;21.00;7.78;;;;;;;15.53;94.84;100893.06;5109830;28;20028;-72
2023/07/30 04:52:10;;;;;;;18.33;7.43;;;;;;;15.58;94.58;100894.41;5092760;28;20024;-72
2023/07/30 04:54:36;;;;;;;19.33;7.78;;;;;;;15.59;94.68;100892.59;5092204;28;20038;-72
2023/07/30 04:57:02;;;;;;;21.60;8.38;;;;;;;15.58;94.65;100902.44;5092581;28;20020;-72
2023/07/30 04:59:27;;;;;;;20.65;8.13;;;;;;;15.59;95.03;100889.91;5109620;28;20058;-72
2023/07/30 05:01:53;;;;;;;19.48;8.05;;;;;;;15.63;94.89;100896.72;5111813;28;20407;-72
2023/07/30 05:04:18;;;;;;;21.58;7.75;;;;;;;15.64;94.69;100906.44;5110382;28;20023;-72
2023/07/30 05:06:43;;;;;;;22.38;8.30;;;;;;;15.76;94.77;100915.31;5110791;28;20019;-72
2023/07/30 05:09:11;;;;;;;19.92;7.50;;;;;;;15.74;94.79;100909.25;5110678;28;20032;-72
2023/07/30 05:11:36;;;;;;;19.80;8.23;;;;;;;15.60;95.49;100895.13;5111056;28;20024;-72
2023/07/30 05:14:02;;;;;;;24.15;8.10;;;;;;;15.60;94.57;100911.22;5110625;28;20046;-72
2023/07/30 05:16:27;;;;;;;20.90;7.97;;;;;;;15.60;95.66;100913.06;5108698;28;20123;-72
2023/07/30 05:18:52;;;;;;;30.42;8.65;;;;;;;15.64;95.76;100919.84;5109841;28;20035;-72
2023/07/30 05:21:18;;;;;;;23.83;7.43;;;;;;;15.69;95.36;100928.41;5093618;28;20031;-72
2023/07/30 05:23:43;;;;;;;26.73;8.30;;;;;;;15.69;95.25;100924.88;5108960;28;20118;-72
2023/07/30 05:26:09;;;;;;;20.98;7.53;;;;;;;15.65;95.68;100929.63;5092878;28;20020;-72
2023/07/30 05:28:34;;;;;;;23.58;7.35;;;;;;;15.63;95.68;100929.72;5110371;28;20119;-72
2023/07/30 05:30:59;;;;;;;22.92;7.90;;;;;;;15.70;95.98;100923.88;5108105;28;20068;-72
2023/07/30 05:33:25;;;;;;;21.92;7.82;;;;;;;15.71;95.82;100928.28;5091808;28;20616;-72
2023/07/30 05:35:50;;;;;;;21.60;7.72;;;;;;;15.72;95.58;100922.78;5092000;28;20496;-71
2023/07/30 05:38:16;;;;;;;24.00;8.88;;;;;;;15.63;96.23;100900.25;5092069;28;20034;-71
2023/07/30 05:40:43;;;;;;;26.17;7.13;;;;;;;15.83;95.98;100925.44;5107984;28;20398;-72
2023/07/30 05:43:09;;;;;;;26.83;8.35;;;;;;;15.74;95.69;100907.44;5095886;28;20027;-71
2023/07/30 05:45:35;;;;;;;24.70;7.93;;;;;;;15.89;96.04;100924.06;5094612;28;20043;-71
2023/07/30 05:48:00;;;;;;;22.85;7.68;;;;;;;15.86;96.10;100914.44;5112764;28;20157;-72
2023/07/30 05:50:26;;;;;;;25.80;7.95;;;;;;;15.86;95.97;100917.13;5106326;28;20027;-72
2023/07/30 05:52:51;;;;;;;20.33;7.55;;;;;;;15.86;95.71;100916.28;5083918;28;20023;-72
2023/07/30 05:55:19;;;;;;;27.00;7.80;;;;;;;15.90;96.37;100921.22;5093725;28;20111;-72
2023/07/30 05:57:44;;;;;;;27.90;8.10;;;;;;;15.90;96.06;100909.66;5093854;28;20023;-72
2023/07/30 06:00:10;;;;;;;20.20;7.65;;;;;;;15.95;95.65;100910.13;5113842;28;20089;-73
2023/07/30 06:02:35;;;;;;;20.75;7.18;;;;;;;16.00;95.83;100923.13;5096274;28;20073;-73
2023/07/30 06:05:01;;;;;;;25.40;8.18;;;;;;;16.05;95.69;100926.28;5112402;28;20031;-73
2023/07/30 06:07:26;;;;;;;22.50;7.22;;;;;;;16.07;95.81;100927.88;5079717;28;20046;-72
2023/07/30 06:09:52;;;;;;;31.90;8.68;;;;;;;16.09;95.63;100931.28;5096055;28;20039;-73
2023/07/30 06:12:17;;;;;;;30.25;7.95;;;;;;;16.07;95.26;100935.06;5093712;28;20023;-72
2023/07/30 06:14:42;;;;;;;26.63;7.85;;;;;;;16.16;95.06;100928.06;5123110;27;20038;-73
2023/07/30 06:17:10;;;;;;;24.38;7.60;;;;;;;16.17;95.25;100938.66;5113894;28;20085;-73
2023/07/30 06:19:35;;;;;;;27.05;8.35;;;;;;;16.13;95.25;100929.16;5112307;28;20059;-72
2023/07/30 06:22:01;;;;;;;23.27;7.38;;;;;;;16.11;95.65;100923.91;5113926;28;20066;-72
2023/07/30 06:24:26;;;;;;;28.27;8.48;;;;;;;16.20;95.51;100935.69;5113899;28;20027;-72
2023/07/30 06:26:51;;;;;;;25.40;7.60;;;;;;;16.23;94.94;100939.97;5111978;28;20027;-72
2023/07/30 06:29:17;;;;;;;24.92;8.48;;;;;;;16.25;95.16;100938.00;5095380;28;20539;-72
2023/07/30 06:31:42;;;;;;;28.55;7.45;;;;;;;16.24;94.08;100926.44;5114180;28;20096;-72
2023/07/30 06:34:08;;;;;;;23.75;7.45;;;;;;;16.28;95.14;100937.75;5095694;28;20414;-72
2023/07/30 06:36:33;;;;;;;22.85;7.05;;;;;;;16.21;94.28;100921.31;5112861;28;20027;-72
2023/07/30 06:39:01;;;;;;;32.85;7.90;;;;;;;16.20;95.46;100916.91;5094399;28;20035;-72
2023/07/30 06:41:27;;;;;;;22.92;7.25;;;;;;;16.27;95.13;100936.06;5114089;28;20106;-72
2023/07/30 06:43:52;;;;;;;25.25;7.72;;;;;;;16.31;95.06;100929.44;5111912;28;20115;-72
2023/07/30 06:46:18;;;;;;;25.20;7.47;;;;;;;16.32;94.32;100928.44;5113707;28;20050;-72
2023/07/30 06:48:45;;;;;;;27.42;8.45;;;;;;;16.35;94.36;100929.03;5092929;28;20024;-72
2023/07/30 06:51:12;;;;;;;20.75;7.20;;;;;;;16.42;93.91;100929.34;5093924;28;20454;-72
2023/07/30 06:53:38;;;;;;;19.85;6.30;;;;;;;16.43;93.57;100932.88;5111545;28;20519;-72
2023/07/30 06:56:03;;;;;;;25.10;6.82;;;;;;;16.52;94.00;100935.63;5090787;28;20062;-72
2023/07/30 06:58:31;;;;;;;24.85;7.38;;;;;;;16.62;93.63;100943.75;5092791;28;20482;-71
2023/07/30 07:00:56;;;;;;;26.30;7.45;;;;;;;16.70;93.23;100943.91;5101571;28;20027;-71
2023/07/30 07:03:22;;;;;;;25.75;6.90;;;;;;;16.65;92.42;100937.22;5108893;28;20039;-71
2023/07/30 07:05:57;;;;;;;21.30;7.57;;;;;;;16.76;92.88;100948.78;5077323;28;20375;-71
2023/07/30 07:08:24;;;;;;;23.42;7.05;;;;;;;16.74;92.62;100949.88;5092881;28;20032;-71
2023/07/30 07:10:50;;;;;;;21.95;6.50;;;;;;;16.77;92.78;100950.50;5092851;28;20028;-71
2023/07/30 07:13:18;;;;;;;22.35;5.75;;;;;;;16.72;92.82;100962.59;5093472;28;20024;-71
2023/07/30 07:15:44;;;;;;;27.38;7.75;;;;;;;16.60;91.94;100961.81;5093091;28;20024;-71
2023/07/30 07:18:10;;;;;;;18.95;6.18;;;;;;;16.68;92.99;100943.22;5093147;28;20024;-71
2023/07/30 07:20:38;;;;;;;25.00;5.60;;;;;;;16.93;92.94;100951.81;5093139;28;20077;-71
2023/07/30 07:23:04;;;;;;;19.63;5.63;;;;;;;17.08;90.47;100934.34;5093179;28;20494;-71
2023/07/30 07:25:29;;;;;;;23.45;6.07;;;;;;;17.39;90.05;100953.94;5092287;28;20081;-71
2023/07/30 07:27:55;;;;;;;28.15;6.28;;;;;;;17.44;88.83;100940.94;5074799;28;20443;-71
2023/07/30 07:30:20;;;;;;;20.08;5.25;;;;;;;17.58;87.95;100944.22;5074617;28;20391;-71
2023/07/30 07:32:50;;;;;;;23.63;6.35;;;;;;;17.63;87.10;100952.72;5052502;28;20095;-71
2023/07/30 07:35:16;;;;;;;22.35;5.72;;;;;;;17.68;86.46;100948.63;5052732;28;20028;-71
2023/07/30 07:37:41;;;;;;;24.15;5.57;;;;;;;17.77;85.49;100954.16;5051298;28;20498;-71
2023/07/30 07:40:09;;;;;;;23.20;6.15;;;;;;;17.76;84.72;100957.81;5051818;28;20182;-71
2023/07/30 07:42:34;;;;;;;21.13;5.20;;;;;;;17.74;85.35;100971.41;5051185;28;20404;-71
2023/07/30 07:45:00;;;;;;;19.75;5.53;;;;;;;17.67;84.58;100967.56;5052224;28;20357;-71
2023/07/30 07:47:25;;;;;;;19.67;5.07;;;;;;;17.54;86.11;100967.00;5052479;28;20538;-71
2023/07/30 07:49:51;;;;;;;22.42;5.78;;;;;;;17.39;86.89;100964.72;5071250;28;20419;-71
2023/07/30 07:52:16;;;;;;;21.95;6.35;;;;;;;17.50;86.16;100971.81;5054627;28;20048;-71
2023/07/30 07:54:41;;;;;;;20.88;5.30;;;;;;;17.53;85.43;100954.53;5071348;28;20460;-71
2023/07/30 07:57:07;;;;;;;25.55;6.30;;;;;;;17.67;84.06;100968.41;5070938;28;20047;-71
2023/07/30 07:59:33;;;;;;;20.63;6.18;;;;;;;17.63;85.22;100963.47;5070694;28;20070;-71
2023/07/30 08:01:58;;;;;;;23.02;5.25;;;;;;;17.75;84.59;100975.81;5070826;28;20443;-71
2023/07/30 08:04:26;;;;;;;20.27;5.68;;;;;;;18.05;84.89;100966.75;5070755;28;20040;-71
2023/07/30 08:06:51;;;;;;;23.33;5.97;;;;;;;18.08;82.67;100968.31;5071126;28;20016;-71
2023/07/30 08:09:17;;;;;;;18.90;5.13;;;;;;;18.04;81.86;100964.22;5071536;28;20518;-71
2023/07/30 08:11:44;;;;;;;20.00;5.13;;;;;;;18.05;82.69;100976.69;5070828;28;20440;-71
2023/07/30 08:14:10;;;;;;;23.10;5.57;;;;;;;18.14;82.78;100982.06;5070655;28;20028;-71
2023/07/30 08:16:35;;;;;;;16.55;4.97;;;;;;;18.22;83.48;100985.91;5070570;28;20162;-71
2023/07/30 08:19:01;;;;;;;20.40;5.55;;;;;;;18.26;82.76;100990.84;5071793;28;20526;-71
2023/07/30 08:21:26;;;;;;;19.88;5.90;;;;;;;18.17;82.14;100980.94;5072049;28;20078;-71
2023/07/30 08:23:51;;;;;;;20.63;5.72;;;;;;;18.16;82.10;100996.25;5071469;28;20082;-71
2023/07/30 08:26:17;;;;;;;24.00;5.78;;;;;;;18.00;81.14;100989.72;5072308;28;20028;-71
2023/07/30 08:28:42;;;;;;;18.02;4.47;;;;;;;18.03;81.76;100994.81;5070446;28;20063;-71
2023/07/30 08:31:08;;;;;;;21.02;5.22;;;;;;;18.06;82.01;100983.75;5070735;28;20044;-71
2023/07/30 08:33:33;;;;;;;18.77;5.13;;;;;;;18.06;82.60;100981.94;5071867;28;20029;-71
2023/07/30 08:35:59;;;;;;;21.67;4.90;;;;;;;18.08;81.48;100993.41;5071662;28;20122;-71
2023/07/30 08:38:25;;;;;;;19.52;5.65;;;;;;;18.03;81.20;100993.00;5069800;28;20024;-71
2023/07/30 08:40:53;;;;;;;24.15;5.75;;;;;;;17.94;80.48;100991.13;5071640;28;20111;-71
2023/07/30 08:43:19;;;;;;;22.63;5.60;;;;;;;17.96;81.19;100982.94;5070167;28;20039;-71
2023/07/30 08:45:44;;;;;;;20.95;5.43;;;;;;;18.00;80.14;100979.81;5070472;28;20016;-71
2023/07/30 08:48:10;;;;;;;18.00;5.22;;;;;;;18.01;80.38;100992.28;5070207;28;20012;-71
2023/07/30 08:50:36;;;;;;;18.05;5.00;;;;;;;17.91;79.16;100983.34;5071640;28;20491;-71
2023/07/30 08:53:03;;;;;;;17.10;5.05;;;;;;;17.79;81.71;100974.53;5071168;28;20025;-71
2023/07/30 08:55:31;;;;;;;19.25;5.32;;;;;;;17.83;82.21;100965.22;5071093;28;20032;-71
2023/07/30 08:57:59;;;;;;;17.63;4.93;;;;;;;17.91;83.25;100957.31;5071208;28;20048;-71
2023/07/30 09:00:27;;;;;;;18.52;5.25;;;;;;;18.16;84.09;100976.53;5071320;28;20036;-71
2023/07/30 09:02:56;;;;;;;22.42;6.03;;;;;;;18.23;80.10;100983.03;5070264;28;20735;-71
2023/07/30 09:05:22;;;;;;;16.52;5.20;;;;;;;18.25;80.38;100975.69;5071352;28;20044;-71
2023/07/30 09:07:48;;;;;;;15.65;5.20;;;;;;;18.46;80.17;100975.50;5071165;28;20043;-71
2023/07/30 09:10:14;;;;;;;18.70;5.72;;;;;;;18.59;78.22;100983.28;5071022;28;20020;-71
2023/07/30 09:12:40;;;;;;;15.60;4.95;;;;;;;18.70;77.23;100977.72;5071454;28;20032;-70
2023/07/30 09:15:07;;;;;;;17.33;4.68;;;;;;;18.75;75.40;100972.78;5069900;28;20020;-70
2023/07/30 09:17:33;;;;;;;15.60;4.97;;;;;;;18.88;76.09;100976.97;5072228;28;20035;-71
2023/07/30 09:20:05;;;;;;;12.65;4.55;;;;;;;19.06;74.55;100981.47;5074826;28;20024;-71
2023/07/30 09:22:35;;;;;;;15.50;4.63;;;;;;;19.38;74.67;100980.13;5075229;28;20101;-70
2023/07/30 09:25:02;;;;;;;14.95;4.55;;;;;;;19.45;69.63;100977.72;5074437;28;20051;-70
2023/07/30 09:27:28;;;;;;;14.80;5.10;;;;;;;19.45;70.75;100978.56;5075128;28;20222;-70
2023/07/30 09:29:57;;;;;;;16.02;4.22;;;;;;;19.73;70.61;100990.16;5074847;28;20024;-70
2023/07/30 09:32:27;;;;;;;13.25;3.60;;;;;;;20.00;67.98;100979.47;5107085;28;20040;-70
2023/07/30 09:34:53;;;;;;;12.13;4.35;;;;;;;20.05;68.40;100975.28;5115137;28;20031;-70
2023/07/30 09:37:19;;;;;;;11.95;3.58;;;;;;;20.16;68.41;100974.22;5115508;28;20050;-70
2023/07/30 09:39:47;;;;;;;16.85;4.40;;;;;;;20.36;67.63;100996.50;5114988;28;20077;-71
2023/07/30 09:42:13;;;;;;;14.35;4.03;;;;;;;20.49;66.28;100991.53;5115681;28;20531;-70
2023/07/30 09:44:39;;;;;;;14.05;4.25;;;;;;;20.39;65.60;100988.09;5097046;28;20036;-70
2023/07/30 09:47:09;;;;;;;9.23;3.50;;;;;;;20.30;65.29;100995.28;5097099;28;20047;-70
2023/07/30 09:49:36;;;;;;;13.60;3.60;;;;;;;20.13;66.46;100990.72;5096678;28;20078;-71
2023/07/30 09:52:02;;;;;;;14.10;4.10;;;;;;;20.12;66.15;100983.66;5115225;28;20037;-70
2023/07/30 09:54:29;;;;;;;17.52;3.80;;;;;;;20.16;68.63;100990.41;5114688;28;20124;-70
2023/07/30 09:56:54;;;;;;;17.40;4.25;;;;;;;20.23;67.29;100999.59;5115021;28;20516;-70
2023/07/30 09:59:20;;;;;;;15.55;4.10;;;;;;;20.20;66.99;100989.94;5096786;28;20036;-70
2023/07/30 10:01:49;;;;;;;12.63;3.70;;;;;;;20.20;66.36;101002.59;5096871;28;20039;-70
2023/07/30 10:04:19;;;;;;;13.27;3.72;;;;;;;19.93;65.11;101011.63;5095999;28;20463;-71
2023/07/30 10:06:49;;;;;;;14.20;3.55;;;;;;;19.83;64.35;100997.38;5114948;28;20034;-70
2023/07/30 10:09:19;;;;;;;13.40;2.80;;;;;;;19.76;66.89;101007.91;5114596;28;20028;-71
2023/07/30 10:11:48;;;;;;;13.68;4.30;;;;;;;19.69;66.64;101004.97;5115020;28;20106;-70
2023/07/30 10:14:14;;;;;;;10.77;3.42;;;;;;;19.47;68.27;100997.28;5114911;28;20106;-71
2023/07/30 10:16:50;;;;;;;13.82;3.67;;;;;;;19.47;67.92;101000.84;5114843;28;20474;-71
2023/07/30 10:19:16;;;;;;;12.40;3.60;;;;;;;19.49;67.16;101001.53;5096243;28;20027;-71
2023/07/30 10:21:44;;;;;;;18.33;3.90;;;;;;;19.52;68.36;101005.75;5096437;28;20383;-70
2023/07/30 10:24:12;;;;;;;13.85;3.78;;;;;;;19.86;68.68;101008.72;5095779;28;20080;-71
2023/07/30 10:26:37;;;;;;;12.05;3.53;;;;;;;20.11;65.32;101009.78;5114662;28;20031;-71
2023/07/30 10:29:19;;;;;;;9.68;3.33;;;;;;;20.48;64.38;101007.91;5113162;28;20023;-70
2023/07/30 10:32:04;;;;;;;12.00;3.40;;;;;;;20.54;63.42;101007.31;5114450;28;20490;-70
2023/07/30 10:34:48;;;;;;;9.75;3.05;;;;;;;20.28;63.93;101023.44;5113466;28;20058;-70
2023/07/30 10:37:24;;;;;;;10.77;2.85;;;;;;;20.11;63.70;101030.53;5114701;28;20023;-70
2023/07/30 10:39:50;;;;;;;9.77;2.92;;;;;;;20.14;61.89;101041.88;5095254;28;20055;-70
2023/07/30 10:42:17;;;;;;;7.75;3.15;;;;;;;20.19;61.98;101036.88;5114553;28;20094;-70
2023/07/30 10:44:45;;;;;;;10.63;2.78;;;;;;;20.36;62.97;101043.28;5114346;28;20034;-70
2023/07/30 10:47:11;;;;;;;8.17;2.67;;;;;;;20.34;61.97;101042.56;5113974;28;20023;-71
2023/07/30 10:49:43;;;;;;;6.45;2.53;;;;;;;20.35;62.03;101044.28;5113906;28;20072;-71
2023/07/30 10:52:09;;;;;;;7.47;2.20;;;;;;;20.31;61.98;101033.94;5114058;28;20028;-71
2023/07/30 10:54:35;;;;;;;10.32;2.45;;;;;;;20.29;61.89;101038.63;5095174;28;20378;-71
2023/07/30 10:57:00;;;;;;;9.77;2.97;;;;;;;20.22;63.66;101037.56;5095585;28;20024;-71
2023/07/30 10:59:26;;;;;;;10.80;2.92;;;;;;;20.24;63.80;101036.41;5113788;28;20481;-71
2023/07/30 11:01:53;;;;;;;8.48;3.25;;;;;;;20.16;63.16;101036.34;5113527;28;20027;-71
2023/07/30 11:04:22;;;;;;;8.73;2.42;;;;;;;20.05;64.57;101032.00;5113921;28;20440;-70
2023/07/30 11:06:49;;;;;;;;;;;;;;;20.24;64.54;101041.81;5114291;28;20031;-71
2023/07/30 11:09:22;;;;;;;9.93;3.00;;;;;;;19.94;64.71;101051.13;5113384;28;19916;-71
2023/07/30 11:11:53;;;;;;;9.32;2.60;;;;;;;19.72;66.75;101047.84;5113630;28;20019;-70
2023/07/30 11:14:21;;;;;;;12.63;3.13;;;;;;;19.66;69.14;101056.56;5113605;28;20030;-71
2023/07/30 11:16:51;;;;;;;9.70;2.92;;;;;;;19.47;70.41;101062.03;5113675;28;20080;-70